Griffith Airport, New South Wales

6:12 PM AEDT on October 22, 2014 (GMT +1100)
Single dwelling residential | Change Station
CLOSE
Current Station
Personal Weather Station
Location: Griffith, NEW SOUTH WALES
Elevation: 427 ft
Nearby Weather Stations

Elev 427 ft 34.28 °S, 146.07 °E | Updated 1 second ago

Clear
Clear
92.5 °F
Feels Like 89 °F
N
0.9
Wind Variable Wind from ESE
Gusts 2.5 mph

Today
High -- | Low -- °F
--% Chance of Precip.
Yesterday
High -- | Low -- °F
Precip. -- in
6:26 AM 7:34 PM
Waning Crescent, 3% visible
Pressure 29.98 in
Visibility 6.2 miles
Clouds
Heat Index 89 °F
Dew Point 48 °F
Humidity 22%
Rainfall 0.00 in
Snow Depth Not available.
UV 1.0 out of 12
Pollen Not available.
Air Quality Not available.
Flu Activity Not available.
METAR YGTH 220600Z AUTO 10003KT 9999 // NCD 33/07 Q1015

More Conditions Fewer Conditions

Pressure 29.98 in
Visibility 6.2 miles
Clouds
Heat Index 89 °F
Dew Point 48 °F
Humidity 22%
Rainfall 0.00 in
Snow Depth Not available.
UV 1.0 out of 12
Pollen Not available.
Air Quality Not available.
Flu Activity Not available.
METAR YGTH 220600Z AUTO 10003KT 9999 // NCD 33/07 Q1015

More Conditions Fewer Conditions

10-Day Weather Forecast

Almanac

Astronomy

Oct. 22, 2014 Rise Set
Actual Time 6:26 AM AEDT 7:34 PM AEDT
Civil Twilight 6:00 AM AEDT 8:01 PM AEDT
Nautical Twilight 5:29 AM AEDT 8:31 PM AEDT
Astronomical Twilight 4:57 AM AEDT 9:04 PM AEDT
Moon 5:19 AM AEDT 6:01 PM AEDT
Length of Visible Light 14h 00m
Length of Day
13h 08m
Tomorrow will be 2m 2s longer.
Waning Crescent, 3% of the Moon is Illuminated
Today
Waning Crescent
Oct 23
New
Oct 30
First Quarter
Nov 6
Full
Nov 14
Last Quarter

Yesterday's Extremes

Country Highs Country Lows

Community

WunderPhotos

Upload Photos

1,763,890 photos uploaded!

Nearby

Snow Depth

Not available.

Earthquake Activity

City Distance Mag. Time & Date
No recent earthquake activity has been reported nearby.
Minimum magnitude displayed is 2.5.

Coastal Water Temperatures

Place Temperature
No Stations Reporting

Nearby Weather Stations